Time;durP1;ratioP1;P1;durP2;ratioP2;P2;SDS_P1;SDS_P2;PMS_P1;PMS_P2;Temp;Humidity;BMP_temperature;BMP_pressure;BME280_temperature;BME280_humidity;BME280_pressure;Samples;Min_cycle;Max_cycle;Signal;HPM_P1;HPM_P2
2022/07/12 00:01:04;;;;;;;2.83;2.60;;;16.00;77.40;;;;;;4938531;28;20117;-82
2022/07/12 00:03:30;;;;;;;4.30;2.83;;;16.10;92.70;;;;;;4944939;29;20581;-82
2022/07/12 00:05:57;;;;;;;2.80;2.42;;;16.10;88.40;;;;;;4943530;28;20081;-82
2022/07/12 00:08:23;;;;;;;3.22;2.60;;;16.20;90.80;;;;;;4948137;28;20156;-82
2022/07/12 00:10:50;;;;;;;3.40;2.22;;;16.00;77.10;;;;;;4955453;28;20074;-82
2022/07/12 00:13:15;;;;;;;3.55;2.67;;;16.00;56.00;;;;;;4960682;28;20042;-81
2022/07/12 00:15:42;;;;;;;3.38;2.80;;;16.10;24.30;;;;;;4941622;28;20078;-82
2022/07/12 00:18:09;;;;;;;3.40;2.53;;;16.00;38.80;;;;;;4968931;28;20074;-82
2022/07/12 00:20:36;;;;;;;3.53;2.67;;;16.10;78.10;;;;;;4946452;28;20439;-82
2022/07/12 00:23:02;;;;;;;2.88;2.50;;;16.00;99.00;;;;;;4946304;28;20380;-82
2022/07/12 00:25:28;;;;;;;2.90;2.60;;;16.00;59.70;;;;;;4961611;28;20046;-82
2022/07/12 00:27:55;;;;;;;3.10;2.80;;;16.10;55.30;;;;;;4946516;28;20094;-82
2022/07/12 00:30:21;;;;;;;2.85;2.60;;;16.00;91.70;;;;;;4958199;28;20149;-82
2022/07/12 00:32:47;;;;;;;3.00;2.70;;;16.00;91.90;;;;;;4946715;28;20077;-82
2022/07/12 00:35:14;;;;;;;3.00;2.70;;;15.90;99.90;;;;;;4944290;28;20130;-82
2022/07/12 00:37:46;;;;;;;3.35;2.75;;;16.10;99.90;;;;;;4937572;28;20043;-82
2022/07/12 00:40:12;;;;;;;2.70;2.50;;;16.00;99.90;;;;;;4948035;28;20472;-82
2022/07/12 00:42:41;;;;;;;3.00;2.70;;;15.90;99.90;;;;;;4956358;28;20043;-81
2022/07/12 00:45:08;;;;;;;3.45;3.10;;;16.00;99.90;;;;;;4970923;28;20130;-82
2022/07/12 00:47:43;;;;;;;2.95;2.65;;;16.10;99.90;;;;;;4937289;28;20133;-82
2022/07/12 00:50:21;;;;;;;3.88;3.25;;;15.90;99.90;;;;;;4944165;28;20097;-82
2022/07/12 00:52:48;;;;;;;4.93;3.95;;;16.00;99.90;;;;;;4944595;28;20412;-82
2022/07/12 00:55:15;;;;;;;4.30;3.90;;;15.90;99.90;;;;;;4942605;28;20112;-81
2022/07/12 00:57:45;;;;;;;4.97;4.47;;;15.80;99.90;;;;;;4945351;28;20069;-82
2022/07/12 01:00:16;;;;;;;4.15;3.63;;;15.80;99.90;;;;;;4950184;28;20050;-82
2022/07/12 01:02:43;;;;;;;4.88;3.90;;;15.80;99.90;;;;;;4937312;28;20043;-82
2022/07/12 01:05:10;;;;;;;3.92;3.53;;;15.80;99.90;;;;;;4958957;28;20039;-82
2022/07/12 01:07:36;;;;;;;4.72;4.20;;;15.80;99.90;;;;;;4950579;28;20079;-82
2022/07/12 01:10:04;;;;;;;4.38;3.95;;;15.80;99.90;;;;;;4939034;28;20046;-82
2022/07/12 01:12:30;;;;;;;5.05;4.18;;;15.80;99.90;;;;;;4960941;28;20162;-82
2022/07/12 01:14:56;;;;;;;5.25;4.43;;;15.90;99.90;;;;;;4936647;28;20519;-82
2022/07/12 01:17:27;;;;;;;5.07;4.28;;;15.70;99.90;;;;;;4945358;28;20073;-81
2022/07/12 01:19:58;;;;;;;5.75;3.92;;;15.70;99.90;;;;;;4954512;28;20039;-82
2022/07/12 01:22:36;;;;;;;4.50;4.10;;;15.80;99.90;;;;;;4946231;28;20046;-81
2022/07/12 01:25:03;;;;;;;5.30;4.20;;;15.80;99.90;;;;;;4960310;28;20046;-82
2022/07/12 01:27:30;;;;;;;4.78;3.83;;;15.70;99.90;;;;;;4943777;28;20295;-82
2022/07/12 01:30:03;;;;;;;4.80;4.30;;;15.80;99.90;;;;;;4950103;28;20102;-82
2022/07/12 01:32:30;;;;;;;3.58;3.28;;;15.70;99.90;;;;;;4943713;28;20042;-82
2022/07/12 01:35:04;;;;;;;4.22;3.83;;;15.80;99.90;;;;;;4945169;28;20070;-82
2022/07/12 01:37:41;;;;;;;5.03;4.53;;;15.70;99.90;;;;;;4940668;28;20038;-82
2022/07/12 01:40:09;;;;;;;4.25;3.85;;;15.60;99.90;;;;;;4940296;28;20046;-82
2022/07/12 01:42:35;;;;;;;5.70;4.20;;;15.60;99.90;;;;;;4944609;28;20054;-82
2022/07/12 01:45:04;;;;;;;4.57;4.15;;;15.70;99.90;;;;;;4958247;28;20093;-82
2022/07/12 01:47:31;;;;;;;6.97;5.38;;;15.70;99.90;;;;;;4940054;28;20112;-82
2022/07/12 01:49:58;;;;;;;6.13;5.10;;;15.60;99.90;;;;;;4944864;28;20518;-82
2022/07/12 01:52:24;;;;;;;4.55;4.15;;;15.60;99.90;;;;;;4944997;28;20085;-82
2022/07/12 01:54:50;;;;;;;5.15;4.63;;;15.70;99.90;;;;;;4946185;28;20434;-82
2022/07/12 01:57:16;;;;;;;5.30;4.70;;;15.70;99.90;;;;;;4959221;28;20108;-81
2022/07/12 01:59:42;;;;;;;5.22;4.72;;;15.70;99.90;;;;;;4938270;28;20031;-82
2022/07/12 02:02:08;;;;;;;6.78;4.75;;;15.60;99.90;;;;;;4941911;28;20065;-82
2022/07/12 02:04:34;;;;;;;4.60;4.13;;;15.60;99.90;;;;;;4938607;28;20047;-82
2022/07/12 02:07:00;;;;;;;5.35;4.50;;;15.70;99.90;;;;;;4939572;28;20333;-82
2022/07/12 02:09:27;;;;;;;4.53;4.03;;;15.60;99.90;;;;;;4938727;28;20141;-82
2022/07/12 02:11:53;;;;;;;5.45;4.22;;;15.70;99.90;;;;;;4948743;28;20049;-81
2022/07/12 02:14:19;;;;;;;6.22;4.50;;;15.60;99.90;;;;;;4971904;28;20050;-82
2022/07/12 02:16:45;;;;;;;8.57;4.95;;;15.70;99.90;;;;;;4961140;28;20202;-82
2022/07/12 02:19:12;;;;;;;7.15;5.28;;;15.70;99.90;;;;;;4960474;28;20505;-82
2022/07/12 02:21:37;;;;;;;5.60;4.95;;;15.60;99.90;;;;;;4959634;28;20137;-82
2022/07/12 02:24:04;;;;;;;5.43;4.90;;;15.70;99.90;;;;;;4960931;28;20483;-82
2022/07/12 02:26:32;;;;;;;7.25;6.32;;;15.50;99.90;;;;;;4944710;28;20053;-82
2022/07/12 02:28:57;;;;;;;7.50;5.88;;;15.50;99.90;;;;;;4959257;28;20034;-82
2022/07/12 02:31:23;;;;;;;8.07;7.00;;;15.60;99.90;;;;;;4935752;28;20341;-82
2022/07/12 02:33:49;;;;;;;12.00;9.50;;;15.50;99.90;;;;;;4944729;28;20136;-82
2022/07/12 02:36:14;;;;;;;14.07;11.00;;;15.40;99.90;;;;;;4940525;28;20440;-82
2022/07/12 02:38:40;;;;;;;14.00;11.32;;;15.50;99.90;;;;;;4949927;28;20027;-82
2022/07/12 02:41:06;;;;;;;16.73;11.32;;;15.50;99.90;;;;;;4941548;28;20046;-82
2022/07/12 02:43:32;;;;;;;13.95;10.77;;;15.50;99.90;;;;;;4954817;28;20597;-82
2022/07/12 02:46:10;;;;;;;17.58;12.07;;;15.40;99.90;;;;;;4937555;28;20130;-82
2022/07/12 02:48:37;;;;;;;15.63;11.30;;;15.40;99.90;;;;;;4956246;28;20561;-82
2022/07/12 02:51:04;;;;;;;15.18;10.77;;;15.50;99.90;;;;;;4942866;28;20047;-82
2022/07/12 02:53:30;;;;;;;14.20;10.15;;;15.50;99.90;;;;;;4942655;28;20039;-82
2022/07/12 02:55:55;;;;;;;15.40;10.05;;;15.40;99.90;;;;;;4944272;28;20038;-82
2022/07/12 02:58:21;;;;;;;19.05;11.80;;;15.30;99.90;;;;;;4943995;28;20418;-82
2022/07/12 03:00:47;;;;;;;22.00;12.07;;;15.20;1.00;;;;;;4940575;28;20075;-82
2022/07/12 03:03:13;;;;;;;19.45;12.70;;;15.20;1.00;;;;;;4956851;28;20125;-82
2022/07/12 03:05:40;;;;;;;19.85;12.57;;;15.30;1.00;;;;;;4957349;28;20078;-82
2022/07/12 03:08:07;;;;;;;26.38;13.10;;;15.30;1.00;;;;;;4958216;28;20094;-82
2022/07/12 03:10:33;;;;;;;23.38;13.95;;;15.30;1.00;;;;;;4945143;28;20049;-82
2022/07/12 03:12:59;;;;;;;21.05;13.40;;;15.30;1.00;;;;;;4952453;28;20070;-82
2022/07/12 03:15:26;;;;;;;22.17;14.13;;;15.20;1.00;;;;;;4951504;28;20113;-82
2022/07/12 03:17:51;;;;;;;20.85;14.35;;;15.30;1.00;;;;;;4942955;28;20157;-82
2022/07/12 03:20:17;;;;;;;19.08;12.38;;;15.20;1.00;;;;;;4942351;28;20113;-82
2022/07/12 03:22:46;;;;;;;18.08;12.10;;;15.30;1.00;;;;;;4957747;28;20567;-82
2022/07/12 03:25:12;;;;;;;15.35;10.90;;;15.30;1.00;;;;;;4941880;28;20802;-82
2022/07/12 03:27:39;;;;;;;19.05;13.13;;;15.30;1.00;;;;;;4942734;28;20039;-82
2022/07/12 03:30:05;;;;;;;16.25;12.13;;;15.30;1.00;;;;;;4934826;28;20047;-82
2022/07/12 03:32:31;;;;;;;18.67;12.85;;;15.30;1.00;;;;;;4954953;28;20510;-82
2022/07/12 03:34:57;;;;;;;16.55;10.88;;;15.30;1.00;;;;;;4938851;28;20031;-82
2022/07/12 03:37:22;;;;;;;22.65;10.55;;;15.30;1.00;;;;;;4944080;28;20050;-82
2022/07/12 03:39:48;;;;;;;12.27;8.57;;;15.10;1.00;;;;;;4948055;28;20031;-82
2022/07/12 03:42:14;;;;;;;67.68;9.52;;;15.20;1.00;;;;;;4939609;28;20190;-81
2022/07/12 03:44:39;;;;;;;70.65;11.45;;;15.10;1.00;;;;;;4947991;28;21070;-82
2022/07/12 03:47:05;;;;;;;85.13;11.05;;;15.20;1.00;;;;;;4938305;28;20506;-82
2022/07/12 03:49:31;;;;;;;18.83;8.40;;;15.10;1.00;;;;;;4940659;28;20117;-82
2022/07/12 03:51:57;;;;;;;8.48;7.10;;;15.10;1.00;;;;;;4953445;28;20450;-82
2022/07/12 03:54:22;;;;;;;12.10;7.32;;;15.10;1.00;;;;;;4947216;28;20043;-81
2022/07/12 03:59:32;;;;;;;49.63;9.38;;;15.20;1.00;;;;;;4955907;28;20053;-82
2022/07/12 04:01:58;;;;;;;197.52;13.50;;;15.20;1.00;;;;;;4956157;28;20054;-82
2022/07/12 04:04:24;;;;;;;42.92;9.07;;;15.20;1.00;;;;;;4946541;28;20424;-82
2022/07/12 04:06:49;;;;;;;19.20;8.48;;;15.10;1.00;;;;;;4945106;28;20035;-82
2022/07/12 04:09:15;;;;;;;27.02;8.45;;;15.20;24.40;;;;;;4957011;28;20047;-81
2022/07/12 04:11:41;;;;;;;24.85;8.32;;;15.30;20.90;;;;;;4948400;28;20475;-82
2022/07/12 04:14:06;;;;;;;16.50;7.78;;;15.20;23.90;;;;;;4960201;28;20217;-82
2022/07/12 04:16:32;;;;;;;19.05;8.43;;;15.20;28.90;;;;;;4955561;28;20047;-82
2022/07/12 04:18:58;;;;;;;14.07;8.27;;;15.20;39.70;;;;;;4970982;28;20081;-82
2022/07/12 04:21:24;;;;;;;29.00;8.95;;;15.40;54.20;;;;;;4945172;28;20046;-82
2022/07/12 04:23:50;;;;;;;28.20;10.00;;;15.30;66.90;;;;;;4937801;28;20055;-82
2022/07/12 04:26:15;;;;;;;15.23;8.50;;;15.40;68.90;;;;;;4946435;28;20282;-82
2022/07/12 04:28:41;;;;;;;18.98;8.52;;;15.50;99.90;;;;;;4962310;28;20034;-81
2022/07/12 04:31:07;;;;;;;18.95;8.20;;;15.40;67.60;;;;;;4942665;28;20047;-82
2022/07/12 04:33:33;;;;;;;49.50;9.90;;;15.50;65.40;;;;;;4945983;28;20050;-82
2022/07/12 04:35:59;;;;;;;15.20;8.25;;;15.50;9.90;;;;;;4945085;28;20039;-82
2022/07/12 04:38:25;;;;;;;46.33;8.70;;;15.50;1.00;;;;;;4936529;28;20043;-82
2022/07/12 04:40:50;;;;;;;60.10;8.98;;;15.40;1.00;;;;;;4962363;28;20035;-82
2022/07/12 04:43:16;;;;;;;15.23;7.95;;;15.40;1.00;;;;;;4961574;28;20453;-82
2022/07/12 04:45:43;;;;;;;16.52;8.02;;;15.40;1.00;;;;;;4935222;29;20499;-82
2022/07/12 04:48:13;;;;;;;25.60;8.45;;;15.40;1.00;;;;;;4945340;28;20047;-82
2022/07/12 04:50:38;;;;;;;32.30;8.77;;;15.60;1.00;;;;;;4954572;28;20046;-82
2022/07/12 04:53:04;;;;;;;19.65;8.35;;;15.60;1.00;;;;;;4957112;28;20038;-82
2022/07/12 04:55:30;;;;;;;29.70;8.68;;;15.80;1.00;;;;;;4960320;28;20042;-82
2022/07/12 04:57:56;;;;;;;16.17;8.27;;;15.80;1.00;;;;;;4961015;28;20043;-82
2022/07/12 05:00:22;;;;;;;13.43;7.45;;;15.90;1.00;;;;;;4945805;28;20059;-82
2022/07/12 05:02:48;;;;;;;14.88;7.75;;;16.10;1.00;;;;;;4961191;28;20243;-82
2022/07/12 05:05:14;;;;;;;16.80;7.10;;;15.90;99.90;;;;;;4950600;28;20035;-82
2022/07/12 05:07:41;;;;;;;13.55;6.55;;;15.70;99.90;;;;;;4945927;28;20066;-82
2022/07/12 05:10:07;;;;;;;13.52;6.50;;;15.70;99.90;;;;;;4947147;28;20058;-82
2022/07/12 05:12:35;;;;;;;11.43;6.05;;;15.60;99.90;;;;;;4939280;28;20562;-82
2022/07/12 05:15:01;;;;;;;9.57;6.45;;;15.50;99.90;;;;;;4943748;28;20503;-82
2022/07/12 05:17:27;;;;;;;9.52;6.20;;;15.50;99.90;;;;;;4958891;28;20046;-82
2022/07/12 05:19:53;;;;;;;23.65;7.85;;;15.50;99.90;;;;;;4958077;28;20479;-82
2022/07/12 05:22:19;;;;;;;8.57;6.55;;;15.50;99.90;;;;;;4957464;28;20042;-81
2022/07/12 05:24:44;;;;;;;7.68;6.60;;;15.70;99.90;;;;;;4946164;28;20108;-82
2022/07/12 05:27:10;;;;;;;9.50;6.88;;;15.80;99.90;;;;;;4955084;28;20058;-82
2022/07/12 05:29:36;;;;;;;7.10;6.28;;;16.00;99.90;;;;;;4942509;28;20046;-81
2022/07/12 05:32:02;;;;;;;7.82;6.60;;;16.20;99.90;;;;;;4940881;28;20051;-82
2022/07/12 05:34:28;;;;;;;7.47;6.20;;;16.50;99.90;;;;;;4945906;28;20129;-82
2022/07/12 05:36:54;;;;;;;6.68;5.90;;;16.60;99.90;;;;;;4974088;28;20027;-82
2022/07/12 05:39:20;;;;;;;6.97;5.65;;;16.60;99.90;;;;;;4961727;28;20553;-82
2022/07/12 05:41:46;;;;;;;6.63;5.50;;;16.70;99.90;;;;;;4961990;28;20043;-82
2022/07/12 05:44:12;;;;;;;7.32;4.65;;;16.70;96.20;;;;;;4944411;28;20240;-82
2022/07/12 05:46:40;;;;;;;4.88;4.13;;;16.90;94.20;;;;;;4958850;28;20528;-82
2022/07/12 05:49:06;;;;;;;4.75;4.13;;;17.00;1.00;;;;;;4955657;28;20050;-82
2022/07/12 05:54:16;;;;;;;4.10;3.70;;;17.10;1.00;;;;;;4958652;28;20542;-82
2022/07/12 05:56:42;;;;;;;4.50;4.10;;;17.20;1.00;;;;;;4944505;28;20048;-82
2022/07/12 05:59:08;;;;;;;4.68;4.05;;;17.20;1.00;;;;;;4942205;28;20110;-82
2022/07/12 06:01:34;;;;;;;4.03;3.53;;;17.10;99.90;;;;;;4976128;28;20058;-82
2022/07/12 06:04:00;;;;;;;6.00;4.00;;;17.10;99.90;;;;;;4942628;28;20090;-81
2022/07/12 06:06:25;;;;;;;5.40;3.70;;;17.10;1.00;;;;;;4960528;28;20038;-82
2022/07/12 06:08:51;;;;;;;4.57;3.90;;;17.20;1.00;;;;;;4944772;28;20038;-82
2022/07/12 06:11:17;;;;;;;4.22;3.53;;;17.40;99.90;;;;;;4944871;28;20451;-82
2022/07/12 06:13:43;;;;;;;4.32;3.38;;;17.30;99.90;;;;;;4960801;28;20038;-82
2022/07/12 06:16:10;;;;;;;4.15;3.50;;;17.50;99.90;;;;;;4957423;28;20039;-82
2022/07/12 06:18:36;;;;;;;3.70;2.88;;;17.40;99.90;;;;;;4958617;28;20305;-81
2022/07/12 06:21:02;;;;;;;3.88;3.28;;;17.50;99.90;;;;;;4945041;28;20039;-82
2022/07/12 06:23:28;;;;;;;3.70;3.30;;;17.60;99.90;;;;;;4943999;28;20046;-82
2022/07/12 06:25:53;;;;;;;3.83;3.28;;;17.70;99.90;;;;;;4959789;28;20042;-82
2022/07/12 06:28:19;;;;;;;3.88;3.42;;;17.70;99.90;;;;;;4944701;28;20329;-81
2022/07/12 06:30:45;;;;;;;4.93;3.63;;;17.80;99.90;;;;;;4957703;28;20143;-82
2022/07/12 06:33:10;;;;;;;3.90;3.30;;;17.90;99.90;;;;;;4959514;28;20232;-82
2022/07/12 06:35:36;;;;;;;3.83;3.40;;;17.80;99.90;;;;;;4944459;28;20518;-82
2022/07/12 06:38:02;;;;;;;4.22;3.55;;;17.80;99.90;;;;;;4942836;28;20137;-82
2022/07/12 06:40:28;;;;;;;4.22;3.83;;;18.00;99.90;;;;;;4943557;28;20045;-81
2022/07/12 06:42:54;;;;;;;3.90;3.50;;;18.00;99.90;;;;;;4945448;28;20398;-82
2022/07/12 06:45:20;;;;;;;3.85;3.42;;;18.10;99.90;;;;;;4940972;28;20043;-82
2022/07/12 06:47:45;;;;;;;3.60;3.28;;;18.30;99.90;;;;;;4944014;28;20459;-82
2022/07/12 06:50:11;;;;;;;5.95;3.55;;;18.20;99.90;;;;;;4958832;28;20149;-81
2022/07/12 06:52:37;;;;;;;3.90;3.30;;;18.30;99.90;;;;;;4944854;28;20045;-82
2022/07/12 06:55:03;;;;;;;4.13;3.58;;;18.50;99.90;;;;;;4942991;28;20479;-82
2022/07/12 06:57:30;;;;;;;3.78;3.38;;;18.40;99.90;;;;;;4943066;28;20034;-82
2022/07/12 06:59:56;;;;;;;5.50;3.67;;;18.40;99.90;;;;;;4960074;28;20138;-82
2022/07/12 07:02:22;;;;;;;3.63;3.33;;;18.50;99.90;;;;;;4941578;28;20055;-82
2022/07/12 07:04:48;;;;;;;5.75;3.20;;;18.70;99.90;;;;;;4958218;28;20398;-82
2022/07/12 07:07:14;;;;;;;3.75;3.40;;;18.70;92.50;;;;;;4958447;28;20043;-82
2022/07/12 07:09:39;;;;;;;4.32;3.30;;;18.90;54.60;;;;;;4953220;28;20047;-81
2022/07/12 07:12:05;;;;;;;3.78;3.35;;;19.00;11.40;;;;;;4943997;28;20395;-82
2022/07/12 07:14:31;;;;;;;4.43;3.40;;;19.10;34.10;;;;;;4942663;28;20034;-82
2022/07/12 07:16:57;;;;;;;4.82;3.15;;;19.30;35.90;;;;;;4940440;28;20173;-82
2022/07/12 07:19:24;;;;;;;3.58;3.17;;;19.40;34.80;;;;;;4958822;28;20042;-82
2022/07/12 07:21:50;;;;;;;3.53;3.22;;;19.70;1.00;;;;;;4939670;28;20042;-82
2022/07/12 07:24:16;;;;;;;3.30;2.85;;;19.80;1.00;;;;;;4939151;28;20383;-82
2022/07/12 07:26:42;;;;;;;4.80;3.00;;;19.80;1.00;;;;;;4959942;28;20449;-82
2022/07/12 07:31:52;;;;;;;5.05;3.25;;;20.10;1.00;;;;;;4956761;28;20089;-82
2022/07/12 07:34:18;;;;;;;3.92;2.90;;;20.30;1.00;;;;;;4941534;28;20051;-82
2022/07/12 07:36:43;;;;;;;3.90;3.13;;;20.40;99.90;;;;;;4958840;28;20035;-82
2022/07/12 07:39:09;;;;;;;3.40;3.05;;;20.50;99.90;;;;;;4944000;28;20400;-82
2022/07/12 07:41:35;;;;;;;3.47;2.97;;;20.70;99.90;;;;;;4951325;28;20611;-82
2022/07/12 07:44:01;;;;;;;4.18;3.30;;;20.80;99.90;;;;;;4943313;28;20118;-82
2022/07/12 07:46:26;;;;;;;3.20;2.80;;;20.70;99.90;;;;;;4942221;28;20671;-82
2022/07/12 07:48:55;;;;;;;3.50;3.03;;;20.90;99.90;;;;;;4941088;28;20086;-82
2022/07/12 07:51:21;;;;;;;3.58;2.58;;;21.20;99.90;;;;;;4957848;28;20042;-82
2022/07/12 07:53:47;;;;;;;3.25;2.60;;;21.30;99.90;;;;;;4944016;28;20042;-82
2022/07/12 07:56:12;;;;;;;5.90;2.97;;;21.60;99.90;;;;;;4944832;28;20034;-82
2022/07/12 07:58:38;;;;;;;3.95;2.80;;;21.60;99.90;;;;;;4942262;28;20553;-82
2022/07/12 08:01:04;;;;;;;4.10;2.60;;;21.90;99.90;;;;;;4942422;28;20100;-82
2022/07/12 08:03:30;;;;;;;2.92;2.63;;;21.90;99.90;;;;;;4955539;28;20051;-82
2022/07/12 08:06:00;;;;;;;3.50;3.20;;;22.00;99.90;;;;;;4959710;28;20050;-82
2022/07/12 08:08:27;;;;;;;3.20;2.90;;;22.30;99.90;;;;;;4943469;28;20078;-82
2022/07/12 08:10:57;;;;;;;2.80;2.60;;;22.40;99.90;;;;;;4944324;28;20073;-82
2022/07/12 08:13:23;;;;;;;4.28;3.00;;;22.50;99.90;;;;;;4961328;28;20050;-82
2022/07/12 08:15:48;;;;;;;5.57;3.00;;;22.60;99.90;;;;;;4952641;28;20049;-82
2022/07/12 08:18:14;;;;;;;5.47;3.38;;;22.80;99.90;;;;;;4944282;29;20376;-81
2022/07/12 08:20:40;;;;;;;3.80;2.95;;;22.80;99.90;;;;;;4935439;28;20145;-82
2022/07/12 08:23:06;;;;;;;3.35;2.50;;;22.50;99.90;;;;;;4940288;28;20046;-82
2022/07/12 08:25:32;;;;;;;6.22;3.05;;;23.00;99.90;;;;;;4962557;28;20053;-82
2022/07/12 08:27:57;;;;;;;3.30;3.00;;;22.80;99.90;;;;;;4963740;28;20121;-82
2022/07/12 08:30:23;;;;;;;4.18;2.83;;;23.10;99.90;;;;;;4960509;28;20042;-82
2022/07/12 08:32:49;;;;;;;7.25;2.30;;;23.00;99.90;;;;;;4948463;28;20049;-82
2022/07/12 08:35:15;;;;;;;2.30;2.10;;;23.00;99.90;;;;;;4946966;28;20058;-82
2022/07/12 08:37:42;;;;;;;3.70;3.00;;;23.00;99.90;;;;;;4961216;28;20042;-82
2022/07/12 08:40:08;;;;;;;3.83;3.45;;;23.00;99.90;;;;;;4963186;28;20329;-82
2022/07/12 08:42:35;;;;;;;4.03;2.40;;;22.90;99.90;;;;;;4962385;28;20047;-82
2022/07/12 08:45:00;;;;;;;5.70;2.22;;;23.00;99.90;;;;;;4946702;28;20573;-82
2022/07/12 08:47:26;;;;;;;3.58;2.15;;;23.00;99.90;;;;;;4945709;28;20363;-82
2022/07/12 08:50:16;;;;;;;3.80;2.25;;;23.10;99.90;;;;;;4942660;28;20117;-82
2022/07/12 08:52:44;;;;;;;2.92;2.60;;;22.90;99.90;;;;;;4956150;28;20469;-82
2022/07/12 08:55:30;;;;;;;5.00;2.67;;;23.20;99.90;;;;;;4954584;28;20039;-82
2022/07/12 08:58:06;;;;;;;4.18;2.92;;;23.30;99.90;;;;;;4945346;28;20231;-82
2022/07/12 09:00:32;;;;;;;3.40;3.08;;;23.10;99.90;;;;;;4958658;28;20435;-82
2022/07/12 09:03:00;;;;;;;3.30;3.00;;;22.90;99.90;;;;;;4954860;28;20498;-82
2022/07/12 09:05:27;;;;;;;3.47;3.00;;;23.20;99.90;;;;;;4945430;28;20098;-82
2022/07/12 09:08:06;;;;;;;4.28;3.10;;;23.30;99.90;;;;;;4947224;28;20624;-82
2022/07/12 09:10:51;;;;;;;3.17;2.88;;;23.60;99.90;;;;;;4946433;28;20073;-82
2022/07/12 09:13:17;;;;;;;4.43;3.15;;;23.90;99.90;;;;;;4961641;28;20042;-82
2022/07/12 09:15:43;;;;;;;3.60;2.90;;;23.80;99.90;;;;;;4959004;28;20058;-82
2022/07/12 09:18:13;;;;;;;4.85;3.42;;;23.90;99.90;;;;;;4958311;28;20073;-83
2022/07/12 09:20:41;;;;;;;3.55;3.03;;;23.80;99.90;;;;;;4957820;28;20045;-82
2022/07/12 09:23:11;;;;;;;4.35;3.17;;;24.10;99.90;;;;;;4962071;28;20047;-82
2022/07/12 09:25:38;;;;;;;5.90;3.10;;;24.10;99.90;;;;;;4961135;28;20126;-82
2022/07/12 09:28:11;;;;;;;3.78;3.08;;;24.30;99.90;;;;;;4946766;28;20093;-82
2022/07/12 09:30:48;;;;;;;5.68;3.30;;;24.60;82.20;;;;;;4939146;28;20070;-82
2022/07/12 09:36:10;;;;;;;3.40;3.08;;;24.70;99.90;;;;;;4959403;28;20058;-82
2022/07/12 09:38:49;;;;;;;3.80;2.88;;;24.60;99.90;;;;;;4942105;28;20263;-82
2022/07/12 09:41:20;;;;;;;3.30;3.00;;;24.60;41.40;;;;;;4960915;28;20176;-82
2022/07/12 09:43:47;;;;;;;4.15;2.78;;;24.50;34.30;;;;;;4960671;28;20047;-82
2022/07/12 09:46:16;;;;;;;3.60;2.60;;;24.40;68.70;;;;;;4955312;28;20127;-82
2022/07/12 09:48:44;;;;;;;2.97;2.70;;;24.50;96.10;;;;;;4957551;28;20039;-82
2022/07/12 09:51:15;;;;;;;3.75;2.53;;;24.20;13.90;;;;;;4947140;28;20490;-82
2022/07/12 09:53:46;;;;;;;4.15;2.55;;;24.60;95.10;;;;;;4946758;28;20117;-82
2022/07/12 09:56:14;;;;;;;8.13;2.72;;;25.10;54.30;;;;;;4952800;28;20116;-82
2022/07/12 09:58:57;;;;;;;3.28;2.30;;;25.40;38.30;;;;;;4971486;28;20519;-83
2022/07/12 10:01:24;;;;;;;5.03;2.78;;;25.70;1.00;;;;;;4938269;28;20070;-82
2022/07/12 10:03:55;;;;;;;3.25;2.53;;;25.40;1.00;;;;;;4956142;28;20495;-82
2022/07/12 10:06:26;;;;;;;3.80;2.80;;;25.70;1.00;;;;;;4956099;28;20038;-82
2022/07/12 10:08:53;;;;;;;3.15;2.40;;;25.80;1.00;;;;;;4949713;28;20050;-82
2022/07/12 10:11:23;;;;;;;2.88;2.50;;;25.70;1.00;;;;;;4949997;28;20490;-83
2022/07/12 10:13:49;;;;;;;4.03;2.50;;;25.80;1.00;;;;;;4972830;28;20041;-83
2022/07/12 10:16:24;;;;;;;8.05;2.92;;;26.20;1.00;;;;;;4959486;28;20043;-82
2022/07/12 10:19:29;;;;;;;2.92;1.92;;;26.20;1.00;;;;;;4941175;28;20062;-82
2022/07/12 10:21:57;;;;;;;1.70;1.55;;;26.40;1.00;;;;;;4945597;28;20407;-85
2022/07/12 10:24:32;;;;;;;6.55;1.98;;;26.50;1.00;;;;;;4954550;28;20083;-83
2022/07/12 10:26:58;;;;;;;;;;;26.90;1.00;;;;;;4941493;28;20494;-84
2022/07/12 10:29:26;;;;;;;4.85;1.90;;;27.00;1.00;;;;;;4950104;28;19925;-84
2022/07/12 10:31:52;;;;;;;3.58;1.85;;;26.90;1.00;;;;;;4939898;28;20043;-83
2022/07/12 10:34:27;;;;;;;4.55;1.60;;;27.00;1.00;;;;;;4938019;28;20035;-83
2022/07/12 10:36:56;;;;;;;2.72;1.30;;;26.90;1.00;;;;;;4941154;28;20046;-83
2022/07/12 10:39:23;;;;;;;2.58;1.13;;;27.50;1.00;;;;;;4959341;28;20122;-83
2022/07/12 10:42:04;;;;;;;1.52;1.20;;;26.90;99.90;;;;;;4959072;28;20042;-83
2022/07/12 10:44:41;;;;;;;2.67;1.42;;;26.90;99.90;;;;;;4957462;28;20089;-83
2022/07/12 10:47:08;;;;;;;1.90;1.10;;;27.50;99.90;;;;;;4943132;28;20046;-83
2022/07/12 10:49:35;;;;;;;1.75;1.60;;;27.10;99.90;;;;;;4947980;28;20047;-83
2022/07/12 10:52:10;;;;;;;2.50;1.20;;;27.20;99.90;;;;;;4953070;28;20039;-83
2022/07/12 10:54:36;;;;;;;;;;;27.40;99.90;;;;;;4959237;28;20064;-83
2022/07/12 10:57:05;;;;;;;1.67;1.30;;;27.40;99.90;;;;;;4943944;28;19925;-83
2022/07/12 10:59:35;;;;;;;3.72;1.30;;;27.60;99.90;;;;;;4949145;28;20035;-83
2022/07/12 11:02:01;;;;;;;1.92;1.60;;;27.80;99.90;;;;;;4953980;28;20062;-83
2022/07/12 11:04:27;;;;;;;2.15;1.48;;;27.60;99.90;;;;;;4942892;28;20098;-83
2022/07/12 11:06:56;;;;;;;2.05;1.65;;;27.70;99.90;;;;;;4942114;28;20035;-83
2022/07/12 11:09:28;;;;;;;2.35;1.38;;;28.00;99.90;;;;;;4946497;28;20039;-91
2022/07/12 11:11:54;;;;;;;3.33;1.75;;;27.70;99.90;;;;;;4945470;28;20054;-90
2022/07/12 11:14:23;;;;;;;1.73;1.10;;;27.80;99.90;;;;;;4944943;28;20031;-90
2022/07/12 11:16:54;;;;;;;2.70;1.35;;;27.60;99.90;;;;;;4935933;28;20487;-88
2022/07/12 11:19:24;;;;;;;1.48;1.10;;;27.70;99.90;;;;;;4944226;28;20126;-89
2022/07/12 11:21:55;;;;;;;2.40;1.20;;;27.60;99.90;;;;;;4945399;28;20536;-90
2022/07/12 11:24:26;;;;;;;1.48;1.27;;;27.30;99.90;;;;;;4946675;28;20047;-89
2022/07/12 11:26:52;;;;;;;1.15;1.00;;;27.60;99.90;;;;;;4942429;28;20039;-90
2022/07/12 11:29:22;;;;;;;2.10;0.88;;;27.50;99.90;;;;;;4945843;28;20807;-90
2022/07/12 11:31:49;;;;;;;2.60;1.20;;;27.40;99.90;;;;;;4935826;28;20039;-92
2022/07/12 11:34:25;;;;;;;2.08;1.38;;;27.60;99.90;;;;;;4945442;28;20181;-92
2022/07/12 11:36:58;;;;;;;1.52;1.15;;;27.30;99.90;;;;;;4941897;28;20038;-91
2022/07/12 11:39:32;;;;;;;2.00;1.20;;;27.60;99.90;;;;;;4946953;28;20043;-90
2022/07/12 11:42:02;;;;;;;1.40;1.30;;;27.60;99.90;;;;;;4961428;28;20053;-91
2022/07/12 11:44:51;;;;;;;1.60;1.40;;;27.50;99.90;;;;;;4939073;28;20300;-91
2022/07/12 11:47:23;;;;;;;1.77;1.40;;;27.60;99.90;;;;;;4943813;28;20046;-90
2022/07/12 11:49:49;;;;;;;2.55;1.48;;;27.90;99.90;;;;;;4935471;28;20047;-90
2022/07/12 11:52:17;;;;;;;1.30;1.20;;;28.20;99.90;;;;;;4958978;28;20263;-91
2022/07/12 11:54:44;;;;;;;2.03;1.30;;;28.40;99.90;;;;;;4945925;28;20494;-90
2022/07/12 11:57:11;;;;;;;3.28;1.30;;;28.40;99.90;;;;;;4948258;28;20080;-90
2022/07/12 11:59:37;;;;;;;3.85;1.50;;;28.70;99.90;;;;;;4959838;28;20038;-91
2022/07/12 12:05:08;;;;;;;2.42;1.20;;;28.50;99.90;;;;;;4953229;28;20043;-91
2022/07/12 12:07:34;;;;;;;1.33;1.00;;;29.10;99.90;;;;;;4962082;28;20070;-90
2022/07/12 12:10:06;;;;;;;2.03;0.95;;;29.10;99.90;;;;;;4950027;28;20274;-90
2022/07/12 12:12:37;;;;;;;1.65;1.10;;;29.20;99.90;;;;;;4963928;28;20093;-90
2022/07/12 12:15:08;;;;;;;3.08;1.17;;;29.10;99.90;;;;;;4959233;28;20146;-91
2022/07/12 12:17:35;;;;;;;4.53;1.00;;;28.70;99.90;;;;;;4950396;28;20042;-92
2022/07/12 12:20:12;;;;;;;0.95;0.80;;;28.90;99.90;;;;;;4946409;28;20112;-90
2022/07/12 12:22:38;;;;;;;2.10;1.10;;;29.40;99.90;;;;;;4947532;28;20039;-90
2022/07/12 12:25:06;;;;;;;1.10;0.90;;;29.80;99.90;;;;;;4962629;28;20066;-91
2022/07/12 12:27:34;;;;;;;3.83;1.65;;;29.90;99.90;;;;;;4960603;28;20046;-89
2022/07/12 12:30:07;;;;;;;2.78;1.20;;;29.60;99.90;;;;;;4955004;28;20049;-91
2022/07/12 12:32:50;;;;;;;4.43;1.30;;;29.60;99.90;;;;;;4943050;28;20479;-90
2022/07/12 12:35:18;;;;;;;2.42;1.10;;;29.80;99.90;;;;;;4960333;28;20039;-91
2022/07/12 12:37:55;;;;;;;2.38;1.17;;;29.60;99.90;;;;;;4948438;28;20101;-92
2022/07/12 12:40:23;;;;;;;1.55;0.88;;;29.60;99.90;;;;;;4964072;28;20557;-91
2022/07/12 12:42:49;;;;;;;0.98;0.80;;;30.10;99.90;;;;;;4964524;28;20122;-91
2022/07/12 12:45:27;;;;;;;1.65;0.70;;;29.70;99.90;;;;;;4942457;28;20039;-92
2022/07/12 12:48:02;;;;;;;2.03;0.90;;;30.10;99.90;;;;;;4943598;28;20051;-89
2022/07/12 12:50:46;;;;;;;0.68;0.68;;;29.70;99.90;;;;;;4961195;28;20167;-89
2022/07/12 12:53:12;;;;;;;0.88;0.77;;;29.50;99.90;;;;;;4960891;28;20275;-90
2022/07/12 12:55:38;;;;;;;1.95;0.90;;;29.30;99.90;;;;;;4944954;28;20046;-92
2022/07/12 12:58:06;;;;;;;1.75;0.88;;;29.70;99.90;;;;;;4948058;28;20559;-91
2022/07/12 13:00:34;;;;;;;1.52;0.80;;;30.10;99.90;;;;;;4958415;28;20098;-91
2022/07/12 13:03:07;;;;;;;1.42;0.70;;;30.30;99.90;;;;;;4948079;28;20043;-90